Time;durP1;ratioP1;P1;durP2;ratioP2;P2;SDS_P1;SDS_P2;PMS_P1;PMS_P2;Temp;Humidity;BMP_temperature;BMP_pressure;BME280_temperature;BME280_humidity;BME280_pressure;Samples;Min_cycle;Max_cycle;Signal;HPM_P1;HPM_P2
2023/01/04 00:00:29;;;;;;;5.68;1.75;;;6.40;99.90;;;;;;7403987;19;19914;-71
2023/01/04 00:03:01;;;;;;;3.95;1.33;;;5.90;99.90;;;;;;7406375;19;20072;-71
2023/01/04 00:05:30;;;;;;;5.28;1.52;;;6.40;99.90;;;;;;7402643;19;20233;-71
2023/01/04 00:08:00;;;;;;;5.35;1.60;;;6.40;99.90;;;;;;7407739;19;19925;-71
2023/01/04 00:10:29;;;;;;;4.78;1.75;;;6.80;99.90;;;;;;7400987;19;19923;-71
2023/01/04 00:12:58;;;;;;;5.43;2.00;;;6.50;99.90;;;;;;7404069;19;20395;-70
2023/01/04 00:15:27;;;;;;;3.45;1.85;;;6.40;99.90;;;;;;7408363;19;19915;-70
2023/01/04 00:17:56;;;;;;;7.40;2.05;;;6.50;99.90;;;;;;7403883;19;19913;-70
2023/01/04 00:20:28;;;;;;;7.18;1.45;;;6.50;99.90;;;;;;7407285;19;20345;-70
2023/01/04 00:22:57;;;;;;;5.55;2.03;;;6.80;99.90;;;;;;7403661;19;20266;-70
2023/01/04 00:25:26;;;;;;;5.78;1.67;;;6.40;99.90;;;;;;7403648;19;19914;-71
2023/01/04 00:27:55;;;;;;;4.70;1.70;;;6.50;99.90;;;;;;7403234;19;19938;-71
2023/01/04 00:30:24;;;;;;;4.90;1.80;;;6.50;99.90;;;;;;7404030;19;19918;-71
2023/01/04 00:32:55;;;;;;;6.28;1.40;;;6.60;99.90;;;;;;7403545;19;20282;-70
2023/01/04 00:35:24;;;;;;;5.82;1.60;;;6.50;99.90;;;;;;7405534;19;20007;-70
2023/01/04 00:37:56;;;;;;;8.23;2.25;;;6.50;99.90;;;;;;7407298;19;19926;-71
2023/01/04 00:40:25;;;;;;;3.70;1.30;;;7.00;99.90;;;;;;7403327;19;19919;-71
2023/01/04 00:42:54;;;;;;;4.75;1.65;;;6.50;99.90;;;;;;7404747;19;19919;-71
2023/01/04 00:45:24;;;;;;;3.92;1.50;;;6.60;99.90;;;;;;7402848;19;19978;-72
2023/01/04 00:47:53;;;;;;;3.78;1.40;;;6.50;99.90;;;;;;7405325;19;19946;-72
2023/01/04 00:50:22;;;;;;;7.25;3.65;;;7.50;99.90;;;;;;7403258;19;19974;-70
2023/01/04 00:52:52;;;;;;;5.03;1.80;;;6.80;99.90;;;;;;7406081;19;19978;-71
2023/01/04 00:55:23;;;;;;;4.10;1.60;;;6.50;99.90;;;;;;7406007;19;20333;-70
2023/01/04 00:57:52;;;;;;;5.10;1.25;;;6.60;99.90;;;;;;7403069;19;19919;-70
2023/01/04 01:00:22;;;;;;;6.25;1.58;;;5.80;99.90;;;;;;7402642;19;20382;-70
2023/01/04 01:02:55;;;;;;;5.38;2.03;;;6.60;99.90;;;;;;7400235;19;19950;-70
2023/01/04 01:05:24;;;;;;;8.68;1.55;;;7.10;99.90;;;;;;7400329;19;19958;-70
2023/01/04 01:07:53;;;;;;;4.15;1.50;;;6.60;99.90;;;;;;7402779;19;20333;-70
2023/01/04 01:10:24;;;;;;;6.72;2.92;;;7.00;99.90;;;;;;7403506;19;19918;-70
2023/01/04 01:12:53;;;;;;;2.78;1.15;;;7.60;99.90;;;;;;7404316;19;19911;-70
2023/01/04 01:15:22;;;;;;;4.13;1.42;;;6.50;99.90;;;;;;7401671;19;20329;-70
2023/01/04 01:17:52;;;;;;;4.40;1.63;;;7.00;99.90;;;;;;7401927;19;20022;-70
2023/01/04 01:20:21;;;;;;;5.45;1.55;;;6.50;99.90;;;;;;7401708;19;19974;-70
2023/01/04 01:22:50;;;;;;;3.60;1.65;;;7.80;99.90;;;;;;7404975;19;19921;-70
2023/01/04 01:25:19;;;;;;;4.75;1.98;;;6.40;99.90;;;;;;7408620;19;19914;-71
2023/01/04 01:27:51;;;;;;;3.80;1.70;;;7.30;99.90;;;;;;7408640;19;19980;-71
2023/01/04 01:30:21;;;;;;;4.43;1.52;;;6.30;99.90;;;;;;7408193;19;19914;-71
2023/01/04 01:32:50;;;;;;;6.63;1.75;;;6.30;99.90;;;;;;7406949;19;19922;-71
2023/01/04 01:35:19;;;;;;;5.55;1.50;;;6.40;99.90;;;;;;7407752;19;20018;-71
2023/01/04 01:37:48;;;;;;;4.47;1.83;;;6.30;99.90;;;;;;7408353;19;19921;-71
2023/01/04 01:40:17;;;;;;;5.05;1.60;;;6.40;99.90;;;;;;7407667;19;20024;-71
2023/01/04 01:42:46;;;;;;;2.75;1.60;;;6.10;99.90;;;;;;7406107;19;19919;-70
2023/01/04 01:45:31;;;;;;;5.28;1.77;;;6.40;99.90;;;;;;7410631;19;20266;-71
2023/01/04 01:48:06;;;;;;;3.83;1.80;;;6.40;99.90;;;;;;7410781;19;19939;-71
2023/01/04 01:50:41;;;;;;;2.92;1.42;;;6.60;99.90;;;;;;7407849;19;19919;-71
2023/01/04 01:53:11;;;;;;;6.03;2.00;;;6.40;99.90;;;;;;7407165;19;19927;-71
2023/01/04 01:55:45;;;;;;;8.13;2.17;;;6.50;99.90;;;;;;7407991;19;19918;-71
2023/01/04 01:58:19;;;;;;;4.82;1.52;;;6.40;99.90;;;;;;7407386;19;20046;-71
2023/01/04 02:00:51;;;;;;;3.25;1.25;;;6.50;99.90;;;;;;7407735;19;19914;-70
2023/01/04 02:03:23;;;;;;;5.45;1.75;;;6.40;99.90;;;;;;7404330;19;19914;-71
2023/01/04 02:05:55;;;;;;;4.97;1.67;;;6.40;99.90;;;;;;7407822;19;19931;-71
2023/01/04 02:08:26;;;;;;;1.92;1.27;;;6.10;99.90;;;;;;7407572;19;19918;-71
2023/01/04 02:10:55;;;;;;;4.68;1.50;;;6.40;99.90;;;;;;7408369;19;19950;-71
2023/01/04 02:14:25;;;;;;;5.70;1.95;;;6.40;99.90;;;;;;7407922;19;20052;-71
2023/01/04 02:16:27;;;;;;;5.40;1.52;;;6.50;99.90;;;;;;7407413;19;19942;-72
2023/01/04 02:19:03;;;;;;;4.88;1.42;;;6.40;99.90;;;;;;7409690;19;19947;-70
2023/01/04 02:21:43;;;;;;;6.30;1.73;;;6.40;99.90;;;;;;7407118;19;19943;-70
2023/01/04 02:24:33;;;;;;;3.80;1.60;;;6.40;99.90;;;;;;7406360;19;19915;-70
2023/01/04 02:27:39;;;;;;;3.92;2.03;;;6.30;99.90;;;;;;7406604;19;20233;-70
2023/01/04 02:30:53;;;;;;;2.60;1.40;;;6.30;99.90;;;;;;7404901;19;19923;-70
2023/01/04 02:33:45;;;;;;;5.72;1.48;;;7.90;99.90;;;;;;7404452;19;19921;-71
2023/01/04 02:36:22;;;;;;;6.90;1.55;;;6.40;99.90;;;;;;7409377;19;19911;-70
2023/01/04 02:39:06;;;;;;;3.90;1.50;;;6.20;99.90;;;;;;7406744;19;19939;-70
2023/01/04 02:41:40;;;;;;;2.67;1.30;;;6.30;99.90;;;;;;7409616;19;20333;-71
2023/01/04 02:47:01;;;;;;;5.35;1.67;;;6.40;99.90;;;;;;7405967;19;19929;-71
2023/01/04 02:52:16;;;;;;;3.08;1.23;;;6.30;99.90;;;;;;7407513;19;20256;-70
2023/01/04 02:54:47;;;;;;;6.00;1.38;;;6.30;99.90;;;;;;7405944;19;19914;-70
2023/01/04 02:57:30;;;;;;;2.10;1.00;;;6.50;99.90;;;;;;7406670;19;19925;-70
2023/01/04 03:00:14;;;;;;;3.35;2.63;;;6.30;99.90;;;;;;7405598;19;19922;-70
2023/01/04 03:06:18;;;;;;;4.35;1.27;;;6.30;99.90;;;;;;7405892;19;19922;-72
2023/01/04 03:08:56;;;;;;;2.85;1.23;;;6.40;99.90;;;;;;7405708;19;19942;-70
2023/01/04 03:14:20;;;;;;;1.80;1.20;;;6.40;99.90;;;;;;7403699;19;19926;-71
2023/01/04 03:16:51;;;;;;;1.70;1.05;;;6.40;99.90;;;;;;7405422;19;19919;-71
2023/01/04 03:19:50;;;;;;;2.05;1.20;;;6.40;99.90;;;;;;7409401;19;20260;-71
2023/01/04 03:36:13;;;;;;;3.38;1.00;;;6.60;99.90;;;;;;7404089;19;19914;-70
2023/01/04 03:50:11;;;;;;;1.55;0.50;;;6.70;99.90;;;;;;7400280;19;19923;-70
2023/01/04 03:52:43;;;;;;;2.50;0.90;;;6.80;99.90;;;;;;7402451;19;19979;-70
2023/01/04 03:55:16;;;;;;;1.58;0.80;;;6.80;99.90;;;;;;7405119;19;19954;-71
2023/01/04 03:57:47;;;;;;;1.45;0.65;;;6.90;99.90;;;;;;7404319;19;19939;-70
2023/01/04 04:00:19;;;;;;;3.50;0.70;;;6.80;99.90;;;;;;7405144;19;20315;-70
2023/01/04 04:02:50;;;;;;;0.90;0.60;;;6.80;99.90;;;;;;7403639;19;19915;-70
2023/01/04 04:10:49;;;;;;;0.88;0.70;;;7.00;99.90;;;;;;7403983;19;20334;-71
2023/01/04 04:13:18;;;;;;;1.45;0.60;;;7.10;99.90;;;;;;7404410;19;19970;-70
2023/01/04 04:15:47;;;;;;;3.15;0.57;;;7.00;99.90;;;;;;7404310;19;19935;-70
2023/01/04 04:18:15;;;;;;;0.98;0.60;;;7.10;99.90;;;;;;7406780;19;19917;-71
2023/01/04 04:20:45;;;;;;;2.83;0.90;;;7.20;99.90;;;;;;7403663;19;19963;-71
2023/01/04 04:23:14;;;;;;;2.70;0.80;;;7.20;99.90;;;;;;7402783;19;19928;-70
2023/01/04 04:25:42;;;;;;;2.13;0.77;;;7.30;99.90;;;;;;7403484;19;19914;-70
2023/01/04 04:28:14;;;;;;;3.88;0.75;;;7.30;99.90;;;;;;7403670;19;19914;-70
2023/01/04 04:30:43;;;;;;;3.60;0.70;;;7.30;99.90;;;;;;7403969;19;19910;-70
2023/01/04 04:33:12;;;;;;;2.15;0.70;;;7.30;99.90;;;;;;7402899;19;19918;-71
2023/01/04 04:35:41;;;;;;;0.73;0.60;;;7.50;99.90;;;;;;7407409;19;19934;-70
2023/01/04 04:38:10;;;;;;;0.82;0.75;;;7.50;99.90;;;;;;7405864;19;19926;-70
2023/01/04 04:43:24;;;;;;;0.95;0.57;;;7.60;99.90;;;;;;7402511;19;20011;-69
2023/01/04 04:45:53;;;;;;;1.20;0.60;;;7.60;99.90;;;;;;7403116;19;19990;-71
2023/01/04 04:48:22;;;;;;;1.13;0.73;;;7.70;99.90;;;;;;7403152;19;19943;-71
2023/01/04 04:50:52;;;;;;;1.10;0.70;;;7.60;99.90;;;;;;7401661;19;19966;-70
2023/01/04 04:53:21;;;;;;;0.63;0.60;;;7.70;99.90;;;;;;7403141;19;20347;-71
2023/01/04 04:55:52;;;;;;;1.02;0.50;;;7.90;99.90;;;;;;7403122;19;19950;-71
2023/01/04 04:58:24;;;;;;;1.48;0.60;;;7.90;99.90;;;;;;7409169;19;20329;-71
2023/01/04 05:00:53;;;;;;;0.88;0.50;;;7.80;99.90;;;;;;7409542;19;19978;-71
2023/01/04 05:03:22;;;;;;;0.98;0.60;;;7.80;99.90;;;;;;7406764;19;19922;-71
2023/01/04 05:05:50;;;;;;;1.02;0.70;;;7.90;99.90;;;;;;7408927;19;19928;-71
2023/01/04 05:08:20;;;;;;;1.75;0.73;;;7.90;99.90;;;;;;7413024;19;19921;-71
2023/01/04 05:10:49;;;;;;;1.05;0.60;;;8.00;99.90;;;;;;7408393;19;19918;-70
2023/01/04 05:13:15;;;;;;;0.57;0.50;;;8.00;99.90;;;;;;7409227;19;19978;-71
2023/01/04 05:15:48;;;;;;;2.40;0.70;;;8.00;99.90;;;;;;7408941;19;19915;-70
2023/01/04 05:18:19;;;;;;;0.95;0.50;;;8.20;99.90;;;;;;7409474;19;19921;-70
2023/01/04 05:20:49;;;;;;;0.77;0.60;;;8.10;99.90;;;;;;7408689;19;19918;-71
2023/01/04 05:23:21;;;;;;;1.80;0.60;;;8.20;99.90;;;;;;7408549;19;19915;-70
2023/01/04 05:25:53;;;;;;;;;;;8.80;99.90;;;;;;7413471;19;19941;-71
2023/01/04 05:28:22;;;;;;;1.08;0.60;;;8.30;99.90;;;;;;7408337;19;19915;-72
2023/01/04 05:30:54;;;;;;;1.63;0.77;;;8.40;99.90;;;;;;7409169;19;19943;-71
2023/01/04 05:33:24;;;;;;;1.13;0.75;;;8.40;99.90;;;;;;7408024;19;20352;-71
2023/01/04 05:35:55;;;;;;;1.00;0.60;;;8.50;99.90;;;;;;7408424;19;20400;-71
2023/01/04 05:38:24;;;;;;;0.50;0.50;;;8.60;99.90;;;;;;7410450;19;19936;-71
2023/01/04 05:40:53;;;;;;;1.70;0.68;;;8.60;99.90;;;;;;7408495;19;19911;-70
2023/01/04 05:43:24;;;;;;;0.90;0.70;;;8.70;99.90;;;;;;7409288;19;19986;-70
2023/01/04 05:45:56;;;;;;;0.95;0.70;;;8.70;99.90;;;;;;7408266;19;19919;-70
2023/01/04 05:48:26;;;;;;;1.00;0.90;;;8.60;99.90;;;;;;7408115;19;19934;-70
2023/01/04 05:50:58;;;;;;;0.70;0.68;;;8.50;99.90;;;;;;7405354;19;19995;-69
2023/01/04 05:53:27;;;;;;;0.93;0.82;;;8.70;99.90;;;;;;7408050;19;19915;-70
2023/01/04 05:55:56;;;;;;;1.27;0.90;;;8.60;99.90;;;;;;7407773;19;19974;-70
2023/01/04 05:58:25;;;;;;;2.65;1.00;;;8.70;99.90;;;;;;7407443;19;19918;-70
2023/01/04 06:00:56;;;;;;;1.73;0.68;;;8.70;99.90;;;;;;7411578;19;20359;-70
2023/01/04 06:03:25;;;;;;;1.27;0.93;;;8.70;99.90;;;;;;7405410;19;19922;-70
2023/01/04 06:05:54;;;;;;;1.42;0.93;;;9.00;99.90;;;;;;7410494;19;19914;-70
2023/01/04 06:08:26;;;;;;;1.45;1.10;;;8.90;99.90;;;;;;7404835;19;19938;-71
2023/01/04 06:10:57;;;;;;;1.02;0.90;;;8.90;99.90;;;;;;7407368;19;19919;-71
2023/01/04 06:13:26;;;;;;;1.23;1.10;;;8.80;99.90;;;;;;7406914;19;19919;-70
2023/01/04 06:16:18;;;;;;;2.20;0.90;;;8.90;99.90;;;;;;7406953;19;20333;-70
2023/01/04 06:19:07;;;;;;;2.25;1.00;;;8.90;99.90;;;;;;7405670;19;19930;-70
2023/01/04 06:21:36;;;;;;;1.50;1.40;;;8.90;99.90;;;;;;7407815;19;19922;-70
2023/01/04 06:24:05;;;;;;;1.80;1.23;;;8.90;99.90;;;;;;7405646;19;19922;-72
2023/01/04 06:26:36;;;;;;;;;;;8.90;99.90;;;;;;7411992;19;19962;-71
2023/01/04 06:29:10;;;;;;;1.60;1.17;;;8.90;99.90;;;;;;7407088;19;20348;-71
2023/01/04 06:31:41;;;;;;;3.20;1.10;;;8.90;99.90;;;;;;7407259;19;19938;-70
2023/01/04 06:34:12;;;;;;;;;;;8.90;99.90;;;;;;7411399;19;19914;-71
2023/01/04 06:36:41;;;;;;;1.80;0.93;;;9.00;99.90;;;;;;7406599;19;19981;-70
2023/01/04 06:39:11;;;;;;;1.02;0.80;;;8.90;99.90;;;;;;7409164;19;19990;-70
2023/01/04 06:41:40;;;;;;;3.78;1.48;;;9.00;99.90;;;;;;7404799;19;19963;-71
2023/01/04 06:44:09;;;;;;;1.67;1.27;;;9.00;99.90;;;;;;7406723;19;19974;-70
2023/01/04 06:46:41;;;;;;;2.42;1.10;;;9.00;99.90;;;;;;7409060;19;19918;-71
2023/01/04 06:49:10;;;;;;;2.80;0.93;;;9.00;99.90;;;;;;7410287;19;19926;-70
2023/01/04 06:51:39;;;;;;;1.13;0.80;;;9.00;99.90;;;;;;7409660;19;20298;-70
2023/01/04 06:54:10;;;;;;;3.08;1.05;;;9.10;99.90;;;;;;7406125;19;20354;-71
2023/01/04 06:56:41;;;;;;;1.20;0.98;;;8.90;99.90;;;;;;7406005;19;20285;-70
2023/01/04 06:59:10;;;;;;;1.75;0.80;;;9.00;99.90;;;;;;7405841;19;19918;-71
2023/01/04 07:01:43;;;;;;;2.35;1.00;;;9.10;99.90;;;;;;7405919;19;20275;-70
2023/01/04 07:04:12;;;;;;;0.80;0.80;;;9.20;99.90;;;;;;7406151;19;19982;-70
2023/01/04 07:06:43;;;;;;;1.42;0.60;;;9.10;99.90;;;;;;7405725;19;19921;-71
2023/01/04 07:09:12;;;;;;;1.98;0.73;;;9.10;99.90;;;;;;7405636;19;19940;-71
2023/01/04 07:11:41;;;;;;;1.27;0.88;;;9.10;99.90;;;;;;7405347;19;20476;-71
2023/01/04 07:14:10;;;;;;;2.25;0.68;;;9.20;99.90;;;;;;7405722;19;20420;-71
2023/01/04 07:16:39;;;;;;;1.30;0.52;;;9.20;99.90;;;;;;7405463;19;19918;-71
2023/01/04 07:19:10;;;;;;;0.90;0.70;;;9.10;99.90;;;;;;7404690;19;19936;-71
2023/01/04 07:21:39;;;;;;;1.02;0.60;;;9.30;99.90;;;;;;7406133;19;20234;-71
2023/01/04 07:24:08;;;;;;;0.73;0.40;;;9.20;99.90;;;;;;7402775;19;19978;-71
2023/01/04 07:26:37;;;;;;;1.10;0.50;;;9.20;99.90;;;;;;7405411;19;19914;-71
2023/01/04 07:29:18;;;;;;;0.88;0.40;;;9.30;99.90;;;;;;7406064;19;19971;-71
2023/01/04 07:31:49;;;;;;;1.80;0.55;;;9.20;99.90;;;;;;7405944;19;19922;-71
2023/01/04 07:34:26;;;;;;;0.40;0.40;;;9.30;99.90;;;;;;7404849;19;19977;-72
2023/01/04 07:37:00;;;;;;;1.20;0.38;;;9.20;99.90;;;;;;7405449;19;20332;-73
2023/01/04 07:39:30;;;;;;;1.80;0.60;;;9.30;99.90;;;;;;7405321;19;20347;-70
2023/01/04 07:42:05;;;;;;;0.40;0.35;;;9.40;99.90;;;;;;7407287;19;19914;-71
2023/01/04 07:44:34;;;;;;;0.93;0.60;;;9.20;99.90;;;;;;7403365;19;19922;-71
2023/01/04 07:47:03;;;;;;;1.00;0.50;;;9.30;99.90;;;;;;7404989;19;19923;-71
2023/01/04 07:49:35;;;;;;;1.17;0.57;;;9.30;99.90;;;;;;7403608;19;19911;-71
2023/01/04 07:52:06;;;;;;;0.50;0.40;;;9.20;99.90;;;;;;7403240;19;19934;-70
2023/01/04 07:54:35;;;;;;;0.60;0.40;;;9.40;99.90;;;;;;7405977;19;19950;-71
2023/01/04 07:57:04;;;;;;;0.90;0.45;;;9.20;99.90;;;;;;7405980;19;19919;-70
2023/01/04 07:59:33;;;;;;;0.95;0.50;;;9.20;99.90;;;;;;7404795;19;19918;-70
2023/01/04 08:02:02;;;;;;;0.70;0.45;;;9.10;99.90;;;;;;7405566;19;19923;-71
2023/01/04 08:04:31;;;;;;;1.38;0.60;;;9.30;99.90;;;;;;7406315;19;19922;-71
2023/01/04 08:07:03;;;;;;;0.90;0.70;;;9.30;99.90;;;;;;7404894;19;20329;-71
2023/01/04 08:09:39;;;;;;;1.40;0.60;;;9.30;99.90;;;;;;7404513;19;19919;-72
2023/01/04 08:12:08;;;;;;;0.68;0.60;;;9.30;99.90;;;;;;7404236;19;19911;-72
2023/01/04 08:14:37;;;;;;;0.88;0.60;;;9.70;99.90;;;;;;7404429;19;19919;-72
2023/01/04 08:17:09;;;;;;;0.95;0.60;;;9.40;99.90;;;;;;7407742;19;19935;-71
2023/01/04 08:19:38;;;;;;;0.82;0.60;;;9.20;99.90;;;;;;7407416;19;19938;-72
2023/01/04 08:22:10;;;;;;;1.02;0.65;;;9.20;99.90;;;;;;7403855;19;19974;-71
2023/01/04 08:24:39;;;;;;;0.73;0.50;;;9.30;99.90;;;;;;7402301;19;19919;-71
2023/01/04 08:27:09;;;;;;;1.35;0.70;;;9.30;99.90;;;;;;7403504;19;19925;-71
2023/01/04 08:29:39;;;;;;;0.95;0.50;;;9.30;99.90;;;;;;7404044;19;19918;-71
2023/01/04 08:32:08;;;;;;;1.98;0.60;;;9.40;99.90;;;;;;7401681;19;20272;-70
2023/01/04 08:34:37;;;;;;;1.10;0.63;;;9.30;99.90;;;;;;7403377;19;19918;-71
2023/01/04 08:37:06;;;;;;;1.75;0.70;;;9.30;99.90;;;;;;7403021;19;19914;-71
2023/01/04 08:39:39;;;;;;;2.08;0.57;;;9.30;99.90;;;;;;7403938;19;19954;-71
2023/01/04 08:42:08;;;;;;;0.43;0.30;;;9.40;99.90;;;;;;7402797;19;19919;-72
2023/01/04 08:44:37;;;;;;;0.93;0.52;;;9.30;99.90;;;;;;7402272;19;19922;-72
2023/01/04 08:47:07;;;;;;;0.65;0.50;;;9.30;99.90;;;;;;7403567;19;19967;-72
2023/01/04 08:49:39;;;;;;;0.75;0.50;;;9.30;99.90;;;;;;7402156;19;19918;-72
2023/01/04 08:52:14;;;;;;;1.35;0.57;;;9.50;99.90;;;;;;7402574;19;20450;-72
2023/01/04 08:54:46;;;;;;;3.53;0.43;;;9.40;99.90;;;;;;7403268;19;19919;-72
2023/01/04 08:57:15;;;;;;;1.17;0.50;;;9.40;99.90;;;;;;7404467;19;19926;-72
2023/01/04 08:59:47;;;;;;;2.03;0.70;;;9.30;99.90;;;;;;7395125;19;19919;-76
2023/01/04 09:02:23;;;;;;;0.82;0.50;;;9.50;99.90;;;;;;7402062;19;20252;-77
2023/01/04 09:04:53;;;;;;;1.77;0.70;;;9.50;99.90;;;;;;7398731;19;20345;-75
2023/01/04 09:07:24;;;;;;;0.90;0.57;;;9.40;99.90;;;;;;7401990;19;19923;-79
2023/01/04 09:09:55;;;;;;;1.30;0.60;;;9.40;99.90;;;;;;7403525;19;20019;-78
2023/01/04 09:12:25;;;;;;;2.35;0.70;;;9.40;99.90;;;;;;7406475;19;19919;-79
2023/01/04 09:14:54;;;;;;;1.60;0.57;;;9.50;99.90;;;;;;7398515;19;19940;-78
2023/01/04 09:17:24;;;;;;;1.00;0.70;;;9.40;99.90;;;;;;7403219;19;20495;-77
2023/01/04 09:19:53;;;;;;;0.70;0.50;;;9.40;99.90;;;;;;7399740;19;19918;-81
2023/01/04 09:22:22;;;;;;;0.70;0.60;;;9.50;99.90;;;;;;7402384;19;20340;-82
2023/01/04 09:24:51;;;;;;;1.52;0.47;;;9.50;99.90;;;;;;7401249;19;19943;-81
2023/01/04 09:27:22;;;;;;;0.70;0.45;;;9.40;99.90;;;;;;7401136;19;19931;-81
2023/01/04 09:29:51;;;;;;;0.75;0.47;;;9.50;99.90;;;;;;7399433;19;20329;-80
2023/01/04 09:32:20;;;;;;;2.78;0.40;;;9.60;99.90;;;;;;7403588;19;19926;-81
2023/01/04 09:34:50;;;;;;;1.95;0.80;;;9.50;99.90;;;;;;7403461;19;20297;-81
2023/01/04 09:37:19;;;;;;;0.57;0.40;;;9.50;99.90;;;;;;7400428;19;19918;-81
2023/01/04 09:39:48;;;;;;;0.60;0.40;;;9.50;99.90;;;;;;7401843;19;19922;-81
2023/01/04 09:42:24;;;;;;;0.80;0.32;;;9.50;99.90;;;;;;7402391;19;19939;-80
2023/01/04 09:44:56;;;;;;;0.65;0.40;;;9.60;99.90;;;;;;7405436;19;19945;-81
2023/01/04 09:47:28;;;;;;;;;;;9.60;99.90;;;;;;7411263;19;19935;-80
2023/01/04 09:50:01;;;;;;;0.95;0.40;;;9.60;99.90;;;;;;7408315;19;19915;-81
2023/01/04 09:52:42;;;;;;;1.40;0.40;;;9.60;99.90;;;;;;7403640;19;20341;-82
2023/01/04 09:55:19;;;;;;;0.68;0.30;;;9.50;99.90;;;;;;7409211;19;19939;-82
2023/01/04 09:57:53;;;;;;;0.40;0.30;;;9.50;99.90;;;;;;7406277;19;19982;-80
2023/01/04 10:00:27;;;;;;;0.50;0.40;;;9.50;99.90;;;;;;7409903;19;20040;-80
2023/01/04 10:03:01;;;;;;;0.43;0.30;;;9.50;99.90;;;;;;7406409;19;19922;-83
2023/01/04 10:05:33;;;;;;;0.30;0.22;;;9.50;99.90;;;;;;7405667;19;19939;-81
2023/01/04 10:08:04;;;;;;;0.60;0.47;;;9.50;99.90;;;;;;7410461;19;19923;-80
2023/01/04 10:10:50;;;;;;;0.17;0.17;;;9.60;99.90;;;;;;7407942;19;19946;-83
2023/01/04 10:13:38;;;;;;;0.95;0.30;;;9.60;99.90;;;;;;7408569;19;19943;-81
2023/01/04 10:16:16;;;;;;;1.88;0.40;;;9.60;99.90;;;;;;7406777;19;19925;-78
2023/01/04 10:18:53;;;;;;;0.68;0.30;;;9.50;99.90;;;;;;7407989;19;20357;-79
2023/01/04 10:21:41;;;;;;;1.10;0.40;;;9.60;99.90;;;;;;7408109;19;19996;-79
2023/01/04 10:24:28;;;;;;;0.65;0.50;;;9.70;99.90;;;;;;7407512;19;20334;-78
2023/01/04 10:27:02;;;;;;;1.10;0.60;;;9.80;99.90;;;;;;7405455;19;19979;-78
2023/01/04 10:30:08;;;;;;;3.95;0.77;;;9.80;99.90;;;;;;7406344;19;19915;-78
2023/01/04 10:32:43;;;;;;;1.55;0.80;;;9.70;99.90;;;;;;7406151;19;19914;-78
2023/01/04 10:35:22;;;;;;;4.38;0.88;;;9.80;99.90;;;;;;7408961;19;20257;-79
2023/01/04 10:37:58;;;;;;;5.85;1.23;;;9.80;99.90;;;;;;7407011;19;19918;-79
2023/01/04 10:40:29;;;;;;;5.25;1.10;;;10.00;99.90;;;;;;7406875;19;19953;-79
2023/01/04 10:43:04;;;;;;;6.15;1.00;;;9.90;99.90;;;;;;7406674;19;19922;-79
2023/01/04 10:45:41;;;;;;;4.45;1.08;;;9.00;99.90;;;;;;7403787;19;19942;-78
2023/01/04 10:48:18;;;;;;;6.60;1.52;;;10.80;99.90;;;;;;7407315;19;20331;-78
2023/01/04 10:50:56;;;;;;;7.97;1.10;;;10.10;99.90;;;;;;7407372;19;20324;-79
2023/01/04 10:53:34;;;;;;;9.63;1.98;;;10.10;99.90;;;;;;7406307;19;19982;-79
2023/01/04 10:56:11;;;;;;;3.88;0.77;;;10.30;99.90;;;;;;7408423;19;20268;-79
2023/01/04 10:58:47;;;;;;;8.18;1.30;;;10.10;99.90;;;;;;7408620;19;19918;-79
2023/01/04 11:01:22;;;;;;;6.28;1.30;;;10.20;99.90;;;;;;7407504;19;19929;-79
2023/01/04 11:03:58;;;;;;;10.00;1.75;;;9.10;99.90;;;;;;7410927;19;19923;-79
2023/01/04 11:06:32;;;;;;;4.55;1.30;;;10.40;99.90;;;;;;7407054;19;20332;-80
2023/01/04 11:09:06;;;;;;;3.55;1.48;;;10.40;99.90;;;;;;7406108;19;20277;-79
2023/01/04 11:11:39;;;;;;;8.30;1.17;;;10.40;99.90;;;;;;7407053;19;19929;-79
2023/01/04 11:14:15;;;;;;;3.95;1.17;;;10.30;99.90;;;;;;7404838;19;19919;-79
2023/01/04 11:16:52;;;;;;;11.60;1.58;;;10.30;99.90;;;;;;7406645;19;20463;-79
2023/01/04 11:19:26;;;;;;;6.68;1.42;;;10.40;99.90;;;;;;7403436;19;19921;-79
2023/01/04 11:22:04;;;;;;;10.93;2.05;;;10.40;99.90;;;;;;7404756;19;19951;-79
2023/01/04 11:24:34;;;;;;;13.73;2.45;;;10.40;99.90;;;;;;7405210;19;19946;-79
2023/01/04 11:27:09;;;;;;;11.88;2.38;;;10.50;99.90;;;;;;7400916;19;19915;-79
2023/01/04 11:29:46;;;;;;;11.20;1.60;;;10.40;99.90;;;;;;7407832;19;19911;-79
2023/01/04 11:32:23;;;;;;;10.77;2.22;;;10.50;99.90;;;;;;7404367;19;19923;-79
2023/01/04 11:34:56;;;;;;;11.88;2.50;;;10.70;99.90;;;;;;7404551;19;19922;-79
2023/01/04 11:37:36;;;;;;;8.25;2.03;;;10.60;99.90;;;;;;7405656;19;19918;-78
2023/01/04 11:40:23;;;;;;;9.73;1.70;;;10.60;99.90;;;;;;7402955;19;20278;-79
2023/01/04 11:42:54;;;;;;;11.93;1.85;;;10.60;99.90;;;;;;7404052;19;19919;-78
2023/01/04 11:45:26;;;;;;;11.63;1.65;;;10.70;99.90;;;;;;7404107;19;19923;-79
2023/01/04 11:48:05;;;;;;;9.35;1.42;;;10.80;99.90;;;;;;7401978;19;19985;-79
2023/01/04 11:50:42;;;;;;;15.98;2.17;;;10.70;99.90;;;;;;7405080;19;19985;-79
2023/01/04 11:53:28;;;;;;;9.23;1.85;;;10.60;99.90;;;;;;7403699;19;19926;-78
2023/01/04 11:56:18;;;;;;;8.90;1.45;;;10.80;99.90;;;;;;7406724;19;19927;-79
2023/01/04 11:59:03;;;;;;;;;;;10.20;99.90;;;;;;7409318;19;19930;-79
2023/01/04 12:01:34;;;;;;;15.43;2.30;;;10.60;99.90;;;;;;7405117;19;20277;-78
2023/01/04 12:04:11;;;;;;;9.32;2.65;;;10.50;99.90;;;;;;7404581;19;20375;-79
2023/01/04 12:06:46;;;;;;;10.82;1.92;;;10.50;99.90;;;;;;7399878;19;19922;-79
2023/01/04 12:09:17;;;;;;;10.55;2.10;;;10.60;99.90;;;;;;7406078;19;19918;-79
2023/01/04 12:11:49;;;;;;;10.00;2.00;;;10.60;99.90;;;;;;7405390;19;20352;-79
2023/01/04 12:14:27;;;;;;;15.70;2.88;;;10.70;99.90;;;;;;7406360;19;19980;-79
2023/01/04 12:17:04;;;;;;;12.25;2.53;;;10.70;99.90;;;;;;7403116;19;19922;-79
2023/01/04 12:19:38;;;;;;;14.50;2.65;;;10.70;99.90;;;;;;7403556;19;20355;-79
2023/01/04 12:22:21;;;;;;;10.57;1.73;;;10.60;99.90;;;;;;7405107;19;19927;-80
2023/01/04 12:24:50;;;;;;;;;;;10.80;99.90;;;;;;7404373;19;19924;-79
2023/01/04 12:27:19;;;;;;;13.38;2.25;;;10.70;99.90;;;;;;7405389;19;19918;-79
2023/01/04 12:29:58;;;;;;;11.48;2.80;;;10.70;99.90;;;;;;7404719;19;19938;-79
2023/01/04 12:32:48;;;;;;;12.20;2.03;;;10.70;99.90;;;;;;7404126;19;19970;-79
2023/01/04 12:35:47;;;;;;;10.85;1.92;;;10.80;99.90;;;;;;7401485;19;19923;-79
2023/01/04 12:38:54;;;;;;;11.75;1.25;;;10.80;99.90;;;;;;7398153;19;20345;-77
2023/01/04 12:41:24;;;;;;;12.18;1.45;;;10.60;99.90;;;;;;7403674;19;19946;-80
2023/01/04 12:43:55;;;;;;;8.35;1.98;;;10.80;99.90;;;;;;7399958;19;19926;-80
2023/01/04 12:49:47;;;;;;;11.27;1.70;;;10.80;99.90;;;;;;7403901;19;20343;-80
2023/01/04 12:52:45;;;;;;;7.13;1.75;;;10.80;99.90;;;;;;7401605;19;19926;-79
2023/01/04 12:55:53;;;;;;;7.78;1.58;;;10.80;99.90;;;;;;7401563;19;20284;-76
2023/01/04 12:58:42;;;;;;;7.95;1.45;;;10.80;99.90;;;;;;7401619;19;19922;-78
2023/01/04 13:01:27;;;;;;;9.07;1.35;;;10.70;99.90;;;;;;7403278;19;19922;-81
2023/01/04 13:04:31;;;;;;;8.85;1.40;;;10.80;99.90;;;;;;7399883;19;20271;-81
2023/01/04 13:07:24;;;;;;;6.30;1.30;;;10.80;99.90;;;;;;7397987;19;19926;-78
2023/01/04 13:10:34;;;;;;;8.80;1.27;;;10.80;99.90;;;;;;7402925;19;19922;-81
2023/01/04 13:13:33;;;;;;;7.65;1.20;;;10.80;99.90;;;;;;7400838;19;19986;-81
2023/01/04 13:16:29;;;;;;;5.45;1.13;;;10.90;99.90;;;;;;7398929;19;19919;-81
2023/01/04 13:19:22;;;;;;;4.47;0.77;;;10.70;99.90;;;;;;7407834;19;20245;-83
2023/01/04 13:21:53;;;;;;;5.82;1.38;;;10.80;99.90;;;;;;7408935;19;20337;-81
2023/01/04 13:24:25;;;;;;;4.35;1.05;;;10.80;99.90;;;;;;7408580;19;19914;-80
2023/01/04 13:27:11;;;;;;;7.65;1.33;;;10.70;99.90;;;;;;7408505;19;19922;-79
2023/01/04 13:29:43;;;;;;;5.82;2.00;;;10.80;99.90;;;;;;7407992;19;19922;-80
2023/01/04 13:32:14;;;;;;;4.47;0.80;;;10.70;99.90;;;;;;7412841;19;19931;-81
2023/01/04 13:34:51;;;;;;;3.25;0.70;;;10.70;99.90;;;;;;7407500;19;19919;-81
2023/01/04 13:37:29;;;;;;;2.92;0.93;;;10.80;99.90;;;;;;7408865;19;19923;-78
2023/01/04 13:40:26;;;;;;;4.55;0.95;;;10.70;99.90;;;;;;7412525;19;19931;-79
2023/01/04 13:43:13;;;;;;;6.88;1.10;;;10.70;99.90;;;;;;7409415;19;19942;-79
2023/01/04 13:45:56;;;;;;;4.40;1.13;;;10.80;99.90;;;;;;7410971;19;19915;-75
2023/01/04 13:48:27;;;;;;;3.30;1.00;;;10.60;99.90;;;;;;7408163;19;19942;-77
2023/01/04 13:51:05;;;;;;;6.05;0.85;;;10.70;99.90;;;;;;7408549;19;20462;-77
2023/01/04 13:53:34;;;;;;;6.68;1.10;;;10.90;99.90;;;;;;7408292;19;19970;-77
2023/01/04 13:56:08;;;;;;;6.03;1.00;;;10.70;99.90;;;;;;7406476;19;20372;-78
2023/01/04 13:58:40;;;;;;;10.02;1.48;;;10.60;99.90;;;;;;7409103;19;19931;-79
2023/01/04 14:01:18;;;;;;;10.50;1.67;;;10.70;99.90;;;;;;7409316;19;19925;-79
2023/01/04 14:03:50;;;;;;;5.53;1.15;;;10.70;99.90;;;;;;7409184;19;20385;-79
2023/01/04 14:06:23;;;;;;;9.45;1.25;;;10.60;99.90;;;;;;7408098;19;20301;-79
2023/01/04 14:09:00;;;;;;;12.95;2.78;;;10.70;99.90;;;;;;7406454;19;19918;-75
2023/01/04 14:14:27;;;;;;;;;;;10.70;99.90;;;;;;7409275;19;19925;-80
2023/01/04 14:17:31;;;;;;;11.10;1.55;;;10.60;99.90;;;;;;7409341;19;19957;-80
2023/01/04 14:20:01;;;;;;;16.60;2.35;;;10.60;99.90;;;;;;7406221;19;20537;-83
2023/01/04 14:22:36;;;;;;;9.75;2.35;;;10.60;99.90;;;;;;7408546;19;19931;-80